Time,TemperatureF,DewpointF,PressureIn,WindDirection,WindDirectionDegrees,WindSpeedMPH,WindSpeedGustMPH,Humidity,HourlyPrecipIn,Conditions,Clouds,dailyrainin,SoftwareType,DateUTC
2013-04-28 00:01:00,59.3,55.1,30.60,ENE,73,3.0,8.0,86,0.00,,,0.00,Weather View 32 v70,2013-04-28 05:01:00,
2013-04-28 00:06:00,59.0,54.8,30.60,East,96,2.0,8.0,86,0.00,,,0.00,Weather View 32 v70,2013-04-28 05:06:00,
2013-04-28 00:11:00,59.0,54.8,30.60,ENE,73,3.0,8.0,86,0.00,,,0.00,Weather View 32 v70,2013-04-28 05:11:00,
2013-04-28 00:16:00,58.7,54.5,30.60,East,96,4.0,8.0,86,0.00,,,0.00,Weather View 32 v70,2013-04-28 05:16:00,
2013-04-28 00:21:00,58.6,54.7,30.60,East,96,3.0,8.0,87,0.00,,,0.00,Weather View 32 v70,2013-04-28 05:21:00,
2013-04-28 00:26:00,58.4,54.5,30.60,ESE,118,3.0,7.0,87,0.00,,,0.00,Weather View 32 v70,2013-04-28 05:26:00,
2013-04-28 00:31:00,58.1,54.6,30.60,East,96,4.0,7.0,88,0.00,,,0.00,Weather View 32 v70,2013-04-28 05:31:00,
2013-04-28 00:36:00,57.8,54.3,30.61,East,96,4.0,6.0,88,0.00,,,0.00,Weather View 32 v70,2013-04-28 05:36:00,
2013-04-28 00:41:00,57.6,54.4,30.61,ESE,118,3.0,6.0,89,0.00,,,0.00,Weather View 32 v70,2013-04-28 05:41:00,
2013-04-28 00:46:00,57.4,54.5,30.62,East,96,3.0,6.0,90,0.00,,,0.00,Weather View 32 v70,2013-04-28 05:46:00,
2013-04-28 00:51:00,57.7,54.8,30.62,East,96,6.0,7.0,90,0.00,,,0.00,Weather View 32 v70,2013-04-28 05:51:00,
2013-04-28 00:56:00,57.7,54.8,30.61,ENE,73,5.0,8.0,90,0.00,,,0.00,Weather View 32 v70,2013-04-28 05:56:00,
2013-04-28 01:01:00,57.8,54.6,30.61,ENE,73,5.0,8.0,89,0.00,,,0.00,Weather View 32 v70,2013-04-28 06:01:00,
2013-04-28 01:06:00,57.8,54.6,30.61,East,96,8.0,8.0,89,0.00,,,0.00,Weather View 32 v70,2013-04-28 06:06:00,
2013-04-28 01:11:00,57.8,54.6,30.61,East,96,3.0,8.0,89,0.00,,,0.00,Weather View 32 v70,2013-04-28 06:11:00,
2013-04-28 01:16:00,57.6,54.4,30.62,East,96,5.0,8.0,89,0.00,,,0.00,Weather View 32 v70,2013-04-28 06:16:00,
2013-04-28 01:21:00,57.3,54.1,30.62,ESE,118,5.0,8.0,89,0.00,,,0.00,Weather View 32 v70,2013-04-28 06:21:00,
2013-04-28 01:26:00,57.3,54.4,30.61,ESE,118,5.0,8.0,90,0.00,,,0.00,Weather View 32 v70,2013-04-28 06:26:00,
2013-04-28 01:31:00,57.2,54.3,30.61,East,96,3.0,8.0,90,0.00,,,0.00,Weather View 32 v70,2013-04-28 06:31:00,
2013-04-28 01:36:00,56.9,54.0,30.62,SE,141,5.0,8.0,90,0.00,,,0.00,Weather View 32 v70,2013-04-28 06:36:00,
2013-04-28 01:41:00,56.6,53.7,30.62,ESE,118,4.0,8.0,90,0.00,,,0.00,Weather View 32 v70,2013-04-28 06:41:00,
2013-04-28 01:46:00,56.5,53.9,30.62,ESE,118,6.0,8.0,91,0.00,,,0.00,Weather View 32 v70,2013-04-28 06:46:00,
2013-04-28 01:51:00,56.5,54.2,30.61,ESE,118,6.0,9.0,92,0.00,,,0.00,Weather View 32 v70,2013-04-28 06:51:00,
2013-04-28 01:56:00,56.3,54.0,30.61,ESE,118,3.0,9.0,92,0.00,,,0.00,Weather View 32 v70,2013-04-28 06:56:00,
2013-04-28 02:01:00,56.2,53.9,30.61,ENE,73,3.0,9.0,92,0.00,,,0.00,Weather View 32 v70,2013-04-28 07:01:00,
2013-04-28 02:06:00,56.0,54.0,30.60,ESE,118,3.0,9.0,93,0.00,,,0.00,Weather View 32 v70,2013-04-28 07:06:00,
2013-04-28 02:11:00,55.8,53.8,30.60,East,96,3.0,9.0,93,0.00,,,0.00,Weather View 32 v70,2013-04-28 07:11:00,
2013-04-28 02:16:00,55.6,53.6,30.61,SE,141,3.0,9.0,93,0.00,,,0.00,Weather View 32 v70,2013-04-28 07:16:00,
2013-04-28 02:21:00,55.6,53.6,30.60,East,96,1.0,9.0,93,0.00,,,0.00,Weather View 32 v70,2013-04-28 07:21:00,
2013-04-28 02:26:00,55.8,54.1,30.60,ENE,73,1.0,9.0,94,0.00,,,0.00,Weather View 32 v70,2013-04-28 07:26:00,
2013-04-28 02:31:00,55.5,53.8,30.60,East,96,1.0,9.0,94,0.00,,,0.00,Weather View 32 v70,2013-04-28 07:31:00,
2013-04-28 02:36:00,55.7,54.0,30.59,ENE,73,2.0,9.0,94,0.00,,,0.00,Weather View 32 v70,2013-04-28 07:36:00,
2013-04-28 02:41:00,55.4,53.7,30.59,NE,51,1.0,9.0,94,0.00,,,0.00,Weather View 32 v70,2013-04-28 07:41:00,
2013-04-28 02:46:00,55.4,53.7,30.59,NE,51,0.0,9.0,94,0.00,,,0.00,Weather View 32 v70,2013-04-28 07:46:00,
2013-04-28 02:51:00,55.3,53.6,30.58,ENE,73,3.0,8.0,94,0.00,,,0.00,Weather View 32 v70,2013-04-28 07:51:00,
2013-04-28 02:56:00,55.3,53.6,30.58,ENE,73,2.0,5.0,94,0.00,,,0.00,Weather View 32 v70,2013-04-28 07:56:00,
2013-04-28 03:01:00,54.4,52.7,30.58,East,96,3.0,5.0,94,0.00,,,0.00,Weather View 32 v70,2013-04-28 08:01:00,
2013-04-28 03:06:00,54.3,52.6,30.58,SE,141,1.0,5.0,94,0.00,,,0.00,Weather View 32 v70,2013-04-28 08:06:00,
2013-04-28 03:11:00,54.2,52.5,30.58,East,96,2.0,5.0,94,0.00,,,0.00,Weather View 32 v70,2013-04-28 08:11:00,
2013-04-28 03:16:00,54.2,52.8,30.58,ENE,73,2.0,5.0,95,0.00,,,0.00,Weather View 32 v70,2013-04-28 08:16:00,
2013-04-28 03:21:00,54.2,52.8,30.57,East,96,3.0,4.0,95,0.00,,,0.00,Weather View 32 v70,2013-04-28 08:21:00,
2013-04-28 03:26:00,54.0,52.6,30.58,East,96,3.0,4.0,95,0.00,,,0.00,Weather View 32 v70,2013-04-28 08:26:00,
2013-04-28 03:31:00,54.3,53.2,30.57,NE,51,1.0,4.0,96,0.00,,,0.00,Weather View 32 v70,2013-04-28 08:31:00,
2013-04-28 03:36:00,54.4,53.3,30.58,NNE,28,0.0,4.0,96,0.00,,,0.00,Weather View 32 v70,2013-04-28 08:36:00,
2013-04-28 03:41:00,53.5,52.1,30.57,NNW,343,0.0,4.0,95,0.00,,,0.00,Weather View 32 v70,2013-04-28 08:41:00,
2013-04-28 03:46:00,53.3,51.9,30.57,NE,51,1.0,4.0,95,0.00,,,0.00,Weather View 32 v70,2013-04-28 08:46:00,
2013-04-28 03:51:00,53.3,52.2,30.57,ESE,118,1.0,4.0,96,0.00,,,0.00,Weather View 32 v70,2013-04-28 08:51:00,
2013-04-28 03:56:00,53.6,52.5,30.57,ENE,73,1.0,4.0,96,0.00,,,0.00,Weather View 32 v70,2013-04-28 08:56:00,
2013-04-28 04:01:00,53.3,52.2,30.57,ENE,73,0.0,3.0,96,0.00,,,0.00,Weather View 32 v70,2013-04-28 09:01:00,
2013-04-28 04:06:00,53.3,52.2,30.57,ENE,73,0.0,3.0,96,0.00,,,0.00,Weather View 32 v70,2013-04-28 09:06:00,
2013-04-28 04:11:00,52.9,51.8,30.56,ENE,73,0.0,3.0,96,0.00,,,0.00,Weather View 32 v70,2013-04-28 09:11:00,
2013-04-28 04:16:00,52.8,51.7,30.56,NNE,28,0.0,3.0,96,0.00,,,0.00,Weather View 32 v70,2013-04-28 09:16:00,
2013-04-28 04:21:00,52.8,52.0,30.56,NE,51,0.0,3.0,97,0.00,,,0.00,Weather View 32 v70,2013-04-28 09:21:00,
2013-04-28 04:26:00,52.8,52.0,30.56,ENE,73,0.0,3.0,97,0.00,,,0.00,Weather View 32 v70,2013-04-28 09:26:00,
2013-04-28 04:31:00,52.6,51.8,30.56,NNE,28,0.0,2.0,97,0.00,,,0.00,Weather View 32 v70,2013-04-28 09:31:00,
2013-04-28 04:36:00,52.8,52.0,30.56,NNE,28,0.0,2.0,97,0.00,,,0.00,Weather View 32 v70,2013-04-28 09:36:00,
2013-04-28 04:41:00,53.1,52.3,30.56,ENE,73,0.0,2.0,97,0.00,,,0.00,Weather View 32 v70,2013-04-28 09:41:00,
2013-04-28 04:46:00,53.5,52.7,30.56,NE,51,0.0,2.0,97,0.00,,,0.00,Weather View 32 v70,2013-04-28 09:46:00,
2013-04-28 04:51:00,53.6,52.8,30.56,ENE,73,0.0,2.0,97,0.00,,,0.00,Weather View 32 v70,2013-04-28 09:51:00,
2013-04-28 04:56:00,53.8,53.0,30.56,NE,51,0.0,1.0,97,0.00,,,0.00,Weather View 32 v70,2013-04-28 09:56:00,
2013-04-28 05:01:00,53.8,53.0,30.56,ENE,73,0.0,0.0,97,0.00,,,0.00,Weather View 32 v70,2013-04-28 10:01:00,
2013-04-28 05:06:00,53.5,52.7,30.56,ENE,73,2.0,3.0,97,0.00,,,0.00,Weather View 32 v70,2013-04-28 10:06:00,
2013-04-28 05:11:00,53.5,52.7,30.56,ENE,73,1.0,3.0,97,0.00,,,0.00,Weather View 32 v70,2013-04-28 10:11:00,
2013-04-28 05:16:00,53.6,52.8,30.56,NE,51,3.0,3.0,97,0.00,,,0.00,Weather View 32 v70,2013-04-28 10:16:00,
2013-04-28 05:21:00,53.7,52.9,30.56,ENE,73,2.0,3.0,97,0.00,,,0.00,Weather View 32 v70,2013-04-28 10:21:00,
2013-04-28 05:26:00,53.7,52.9,30.56,ENE,73,2.0,3.0,97,0.00,,,0.00,Weather View 32 v70,2013-04-28 10:26:00,
2013-04-28 05:31:00,53.8,53.0,30.56,ENE,73,3.0,5.0,97,0.00,,,0.00,Weather View 32 v70,2013-04-28 10:31:00,
2013-04-28 05:36:00,54.0,53.2,30.56,NE,51,2.0,5.0,97,0.00,,,0.00,Weather View 32 v70,2013-04-28 10:36:00,
2013-04-28 05:41:00,54.0,53.2,30.56,NE,51,0.0,5.0,97,0.00,,,0.00,Weather View 32 v70,2013-04-28 10:41:00,
2013-04-28 05:46:00,54.0,53.2,30.56,NE,51,1.0,5.0,97,0.00,,,0.00,Weather View 32 v70,2013-04-28 10:46:00,
2013-04-28 05:51:00,53.9,53.1,30.56,NE,51,0.0,5.0,97,0.00,,,0.00,Weather View 32 v70,2013-04-28 10:51:00,
2013-04-28 05:56:00,53.8,53.0,30.56,NNE,28,0.0,5.0,97,0.00,,,0.00,Weather View 32 v70,2013-04-28 10:56:00,
2013-04-28 06:01:00,53.8,53.0,30.56,NE,51,1.0,5.0,97,0.00,,,0.00,Weather View 32 v70,2013-04-28 11:01:00,
2013-04-28 06:06:00,53.7,52.9,30.56,NNE,28,0.0,5.0,97,0.00,,,0.00,Weather View 32 v70,2013-04-28 11:06:00,
2013-04-28 06:11:00,53.1,52.3,30.56,NNE,28,0.0,5.0,97,0.00,,,0.00,Weather View 32 v70,2013-04-28 11:11:00,
2013-04-28 06:16:00,53.0,52.2,30.56,ENE,73,1.0,5.0,97,0.00,,,0.00,Weather View 32 v70,2013-04-28 11:16:00,
2013-04-28 06:21:00,52.6,51.8,30.56,NNE,28,0.0,5.0,97,0.00,,,0.00,Weather View 32 v70,2013-04-28 11:21:00,
2013-04-28 06:26:00,52.6,51.8,30.56,NE,51,1.0,5.0,97,0.00,,,0.00,Weather View 32 v70,2013-04-28 11:26:00,
2013-04-28 06:31:00,52.3,51.5,30.56,North,6,2.0,4.0,97,0.00,,,0.00,Weather View 32 v70,2013-04-28 11:31:00,
2013-04-28 06:36:00,52.3,51.8,30.56,North,6,1.0,5.0,98,0.00,,,0.00,Weather View 32 v70,2013-04-28 11:36:00,
2013-04-28 06:41:00,52.3,51.8,30.56,North,6,3.0,5.0,98,0.00,,,0.00,Weather View 32 v70,2013-04-28 11:41:00,
2013-04-28 06:46:00,52.5,52.0,30.56,NNE,28,3.0,5.0,98,0.00,,,0.00,Weather View 32 v70,2013-04-28 11:46:00,
2013-04-28 06:51:00,52.8,52.2,30.56,NNE,28,1.0,6.0,98,0.00,,,0.00,Weather View 32 v70,2013-04-28 11:51:00,
2013-04-28 06:56:00,52.7,52.1,30.55,ENE,73,1.0,6.0,98,0.00,,,0.00,Weather View 32 v70,2013-04-28 11:56:00,
2013-04-28 07:01:00,53.1,52.5,30.56,NE,51,2.0,6.0,98,0.00,,,0.00,Weather View 32 v70,2013-04-28 12:01:00,
2013-04-28 07:06:00,53.2,52.6,30.56,NNE,28,1.0,6.0,98,0.00,,,0.00,Weather View 32 v70,2013-04-28 12:06:00,
2013-04-28 07:11:00,53.1,52.5,30.57,NNE,28,2.0,6.0,98,0.00,,,0.00,Weather View 32 v70,2013-04-28 12:11:00,
2013-04-28 07:16:00,53.2,52.6,30.57,NNE,28,0.0,6.0,98,0.00,,,0.00,Weather View 32 v70,2013-04-28 12:16:00,
2013-04-28 07:21:00,53.5,52.9,30.57,NNE,28,0.0,6.0,98,0.00,,,0.00,Weather View 32 v70,2013-04-28 12:21:00,
2013-04-28 07:26:00,53.5,52.9,30.57,ESE,118,1.0,6.0,98,0.00,,,0.00,Weather View 32 v70,2013-04-28 12:26:00,
2013-04-28 07:31:00,54.3,54.0,30.58,ENE,73,0.0,6.0,99,0.00,,,0.00,Weather View 32 v70,2013-04-28 12:31:00,
2013-04-28 07:37:00,54.9,54.3,30.58,ENE,73,3.0,6.0,98,0.00,,,0.00,Weather View 32 v70,2013-04-28 12:37:00,
2013-04-28 07:42:00,55.0,54.4,30.58,ENE,73,2.0,6.0,98,0.00,,,0.00,Weather View 32 v70,2013-04-28 12:42:00,
2013-04-28 07:47:00,55.5,54.9,30.58,ESE,118,3.0,6.0,98,0.00,,,0.00,Weather View 32 v70,2013-04-28 12:47:00,
2013-04-28 07:52:00,55.7,55.1,30.59,NNE,28,1.0,5.0,98,0.00,,,0.00,Weather View 32 v70,2013-04-28 12:52:00,
2013-04-28 07:57:00,55.8,55.2,30.59,ENE,73,5.0,6.0,98,0.00,,,0.00,Weather View 32 v70,2013-04-28 12:57:00,
2013-04-28 08:02:00,55.9,55.1,30.59,ENE,73,5.0,6.0,97,0.00,,,0.00,Weather View 32 v70,2013-04-28 13:02:00,
2013-04-28 08:07:00,56.2,55.4,30.59,ENE,73,5.0,8.0,97,0.00,,,0.00,Weather View 32 v70,2013-04-28 13:07:00,
2013-04-28 08:12:00,56.4,55.3,30.59,ESE,118,3.0,8.0,96,0.00,,,0.00,Weather View 32 v70,2013-04-28 13:12:00,
2013-04-28 08:17:00,56.7,55.3,30.60,ENE,73,7.0,8.0,95,0.00,,,0.00,Weather View 32 v70,2013-04-28 13:17:00,
2013-04-28 08:22:00,56.7,55.3,30.59,East,96,5.0,8.0,95,0.00,,,0.00,Weather View 32 v70,2013-04-28 13:22:00,
2013-04-28 08:27:00,57.0,55.6,30.60,ENE,73,6.0,9.0,95,0.00,,,0.00,Weather View 32 v70,2013-04-28 13:27:00,
2013-04-28 08:32:00,57.2,55.5,30.59,ESE,118,6.0,10.0,94,0.00,,,0.00,Weather View 32 v70,2013-04-28 13:32:00,
2013-04-28 08:37:00,57.5,55.5,30.60,NE,51,8.0,10.0,93,0.00,,,0.00,Weather View 32 v70,2013-04-28 13:37:00,
2013-04-28 08:42:00,58.0,55.7,30.60,East,96,5.0,10.0,92,0.00,,,0.00,Weather View 32 v70,2013-04-28 13:42:00,
2013-04-28 08:47:00,58.4,55.8,30.60,ESE,118,7.0,10.0,91,0.00,,,0.00,Weather View 32 v70,2013-04-28 13:47:00,
2013-04-28 08:52:00,58.5,55.6,30.60,ESE,118,5.0,10.0,90,0.00,,,0.00,Weather View 32 v70,2013-04-28 13:52:00,
2013-04-28 08:57:00,58.6,54.7,30.60,ESE,118,6.0,10.0,87,0.00,,,0.00,Weather View 32 v70,2013-04-28 13:57:00,
2013-04-28 09:02:00,58.6,54.7,30.60,East,96,8.0,10.0,87,0.00,,,0.00,Weather View 32 v70,2013-04-28 14:02:00,
2013-04-28 09:07:00,58.7,54.8,30.60,ESE,118,4.0,10.0,87,0.00,,,0.00,Weather View 32 v70,2013-04-28 14:07:00,
2013-04-28 09:12:00,58.9,55.0,30.60,East,96,5.0,10.0,87,0.00,,,0.00,Weather View 32 v70,2013-04-28 14:12:00,
2013-04-28 09:17:00,59.1,55.2,30.60,ENE,73,6.0,10.0,87,0.00,,,0.00,Weather View 32 v70,2013-04-28 14:17:00,
2013-04-28 09:22:00,59.1,54.9,30.60,ESE,118,5.0,10.0,86,0.00,,,0.00,Weather View 32 v70,2013-04-28 14:22:00,
2013-04-28 09:27:00,59.3,55.1,30.60,ENE,73,4.0,10.0,86,0.00,,,0.00,Weather View 32 v70,2013-04-28 14:27:00,
2013-04-28 09:32:00,59.4,54.9,30.60,ENE,73,3.0,10.0,85,0.00,,,0.00,Weather View 32 v70,2013-04-28 14:32:00,
2013-04-28 09:37:00,59.6,55.1,30.60,ENE,73,5.0,10.0,85,0.00,,,0.00,Weather View 32 v70,2013-04-28 14:37:00,
2013-04-28 09:42:00,60.0,55.5,30.60,ENE,73,6.0,10.0,85,0.00,,,0.00,Weather View 32 v70,2013-04-28 14:42:00,
2013-04-28 09:47:00,60.2,55.7,30.60,NE,51,5.0,10.0,85,0.00,,,0.00,Weather View 32 v70,2013-04-28 14:47:00,
2013-04-28 09:52:00,60.6,56.1,30.60,East,96,3.0,10.0,85,0.00,,,0.00,Weather View 32 v70,2013-04-28 14:52:00,
2013-04-28 09:57:00,60.6,55.4,30.60,East,96,5.0,10.0,83,0.00,,,0.00,Weather View 32 v70,2013-04-28 14:57:00,
2013-04-28 10:02:00,60.7,55.5,30.60,ENE,73,5.0,10.0,83,0.00,,,0.00,Weather View 32 v70,2013-04-28 15:02:00,
2013-04-28 10:07:00,60.6,55.4,30.60,ESE,118,5.0,9.0,83,0.00,,,0.00,Weather View 32 v70,2013-04-28 15:07:00,
2013-04-28 10:12:00,61.0,56.1,30.60,ESE,118,5.0,9.0,84,0.00,,,0.00,Weather View 32 v70,2013-04-28 15:12:00,
2013-04-28 10:17:00,61.0,55.8,30.60,SE,141,5.0,9.0,83,0.00,,,0.00,Weather View 32 v70,2013-04-28 15:17:00,
2013-04-28 10:22:00,61.1,56.2,30.60,ESE,118,5.0,8.0,84,0.00,,,0.00,Weather View 32 v70,2013-04-28 15:22:00,
2013-04-28 10:27:00,61.1,56.5,30.60,SSE,163,3.0,8.0,85,0.00,,,0.00,Weather View 32 v70,2013-04-28 15:27:00,
2013-04-28 10:32:00,61.7,57.5,30.60,ENE,73,3.0,10.0,86,0.00,,,0.00,Weather View 32 v70,2013-04-28 15:32:00,
2013-04-28 10:37:00,62.1,57.5,30.60,SSE,163,5.0,10.0,85,0.00,,,0.00,Weather View 32 v70,2013-04-28 15:37:00,
2013-04-28 10:42:00,62.4,57.5,30.60,SE,141,5.0,10.0,84,0.00,,,0.00,Weather View 32 v70,2013-04-28 15:42:00,
2013-04-28 10:47:00,62.6,57.0,30.60,SE,141,6.0,10.0,82,0.00,,,0.00,Weather View 32 v70,2013-04-28 15:47:00,
2013-04-28 10:52:00,63.6,58.3,30.59,ESE,118,6.0,10.0,83,0.00,,,0.00,Weather View 32 v70,2013-04-28 15:52:00,
2013-04-28 10:57:00,63.7,58.1,30.59,NE,51,4.0,10.0,82,0.00,,,0.00,Weather View 32 v70,2013-04-28 15:57:00,
2013-04-28 11:02:00,63.7,58.1,30.60,ESE,118,5.0,10.0,82,0.00,,,0.00,Weather View 32 v70,2013-04-28 16:02:00,
2013-04-28 11:07:00,63.8,58.2,30.59,SE,141,5.0,10.0,82,0.00,,,0.00,Weather View 32 v70,2013-04-28 16:07:00,
2013-04-28 11:12:00,64.3,58.7,30.59,ESE,118,6.0,10.0,82,0.00,,,0.00,Weather View 32 v70,2013-04-28 16:12:00,
2013-04-28 11:17:00,64.7,59.4,30.59,SSE,163,8.0,10.0,83,0.00,,,0.00,Weather View 32 v70,2013-04-28 16:17:00,
2013-04-28 11:22:00,65.5,59.8,30.59,SSW,208,4.0,10.0,82,0.00,,,0.00,Weather View 32 v70,2013-04-28 16:22:00,
2013-04-28 11:27:00,65.4,59.4,30.58,SSW,208,5.0,10.0,81,0.00,,,0.00,Weather View 32 v70,2013-04-28 16:27:00,
2013-04-28 11:32:00,65.5,59.8,30.59,South,186,3.0,10.0,82,0.00,,,0.00,Weather View 32 v70,2013-04-28 16:32:00,
2013-04-28 11:37:00,65.9,60.2,30.58,East,96,6.0,10.0,82,0.00,,,0.00,Weather View 32 v70,2013-04-28 16:37:00,
2013-04-28 11:42:00,66.3,60.3,30.58,SSE,163,1.0,10.0,81,0.00,,,0.00,Weather View 32 v70,2013-04-28 16:42:00,
2013-04-28 11:47:00,67.2,60.8,30.58,ESE,118,4.0,10.0,80,0.00,,,0.00,Weather View 32 v70,2013-04-28 16:47:00,
2013-04-28 11:52:00,67.1,60.3,30.58,West,276,3.0,10.0,79,0.00,,,0.00,Weather View 32 v70,2013-04-28 16:52:00,
2013-04-28 11:57:00,67.5,60.7,30.58,SW,231,3.0,10.0,79,0.00,,,0.00,Weather View 32 v70,2013-04-28 16:57:00,
2013-04-28 12:02:00,67.5,60.7,30.58,SSW,208,5.0,10.0,79,0.00,,,0.00,Weather View 32 v70,2013-04-28 17:02:00,
2013-04-28 12:07:00,68.5,61.7,30.58,West,276,1.0,10.0,79,0.00,,,0.00,Weather View 32 v70,2013-04-28 17:07:00,
2013-04-28 12:12:00,68.5,61.3,30.58,South,186,1.0,10.0,78,0.00,,,0.00,Weather View 32 v70,2013-04-28 17:12:00,
2013-04-28 12:17:00,68.8,60.9,30.58,South,186,3.0,10.0,76,0.00,,,0.00,Weather View 32 v70,2013-04-28 17:17:00,
2013-04-28 12:22:00,70.0,62.1,30.57,ESE,118,1.0,10.0,76,0.00,,,0.00,Weather View 32 v70,2013-04-28 17:22:00,
2013-04-28 12:27:00,70.3,61.6,30.57,SSW,208,3.0,10.0,74,0.00,,,0.00,Weather View 32 v70,2013-04-28 17:27:00,
2013-04-28 12:32:00,69.8,61.1,30.57,SE,141,6.0,10.0,74,0.00,,,0.00,Weather View 32 v70,2013-04-28 17:32:00,
2013-04-28 12:37:00,71.3,62.9,30.57,SE,141,1.0,8.0,75,0.00,,,0.00,Weather View 32 v70,2013-04-28 17:37:00,
2013-04-28 12:42:00,71.1,62.0,30.57,South,186,4.0,8.0,73,0.00,,,0.00,Weather View 32 v70,2013-04-28 17:42:00,
2013-04-28 12:47:00,70.7,61.6,30.57,SSW,208,3.0,8.0,73,0.00,,,0.00,Weather View 32 v70,2013-04-28 17:47:00,
2013-04-28 12:52:00,70.8,62.1,30.56,SW,231,1.0,8.0,74,0.00,,,0.00,Weather View 32 v70,2013-04-28 17:52:00,
2013-04-28 12:57:00,70.9,62.2,30.56,ESE,118,6.0,8.0,74,0.00,,,0.00,Weather View 32 v70,2013-04-28 17:57:00,
2013-04-28 13:02:00,71.7,63.3,30.55,NNE,28,1.0,8.0,75,0.00,,,0.00,Weather View 32 v70,2013-04-28 18:02:00,
2013-04-28 13:07:00,71.2,62.1,30.55,WSW,253,5.0,9.0,73,0.00,,,0.00,Weather View 32 v70,2013-04-28 18:07:00,
2013-04-28 13:12:00,71.6,62.5,30.55,South,186,7.0,11.0,73,0.00,,,0.00,Weather View 32 v70,2013-04-28 18:12:00,
2013-04-28 13:17:00,71.5,62.0,30.55,SSW,208,6.0,11.0,72,0.00,,,0.00,Weather View 32 v70,2013-04-28 18:17:00,
2013-04-28 13:22:00,72.0,62.8,30.55,WSW,253,2.0,11.0,73,0.00,,,0.00,Weather View 32 v70,2013-04-28 18:22:00,
2013-04-28 13:27:00,72.5,63.3,30.55,South,186,5.0,11.0,73,0.00,,,0.00,Weather View 32 v70,2013-04-28 18:27:00,
2013-04-28 13:32:00,72.7,63.1,30.54,East,96,3.0,11.0,72,0.00,,,0.00,Weather View 32 v70,2013-04-28 18:32:00,
2013-04-28 13:37:00,72.4,62.4,30.54,SSW,208,1.0,11.0,71,0.00,,,0.00,Weather View 32 v70,2013-04-28 18:37:00,
2013-04-28 13:42:00,73.0,62.6,30.54,SSE,163,3.0,11.0,70,0.00,,,0.00,Weather View 32 v70,2013-04-28 18:42:00,
2013-04-28 13:47:00,73.3,62.9,30.53,NNE,28,2.0,11.0,70,0.00,,,0.00,Weather View 32 v70,2013-04-28 18:47:00,
2013-04-28 13:52:00,73.5,63.1,30.53,ESE,118,5.0,11.0,70,0.00,,,0.00,Weather View 32 v70,2013-04-28 18:52:00,
2013-04-28 13:57:00,73.7,63.3,30.53,SW,231,5.0,11.0,70,0.00,,,0.00,Weather View 32 v70,2013-04-28 18:57:00,
2013-04-28 14:02:00,73.5,63.1,30.53,South,186,5.0,12.0,70,0.00,,,0.00,Weather View 32 v70,2013-04-28 19:02:00,
2013-04-28 14:07:00,74.0,63.1,30.52,South,186,7.0,12.0,69,0.00,,,0.00,Weather View 32 v70,2013-04-28 19:07:00,
2013-04-28 14:12:00,74.1,63.2,30.52,SE,141,8.0,12.0,69,0.00,,,0.00,Weather View 32 v70,2013-04-28 19:12:00,
2013-04-28 14:17:00,74.6,63.3,30.52,SSE,163,2.0,12.0,68,0.00,,,0.00,Weather View 32 v70,2013-04-28 19:17:00,
2013-04-28 14:22:00,75.6,63.8,30.52,SE,141,4.0,12.0,67,0.00,,,0.00,Weather View 32 v70,2013-04-28 19:22:00,
2013-04-28 14:27:00,75.9,63.7,30.52,SE,141,4.0,12.0,66,0.00,,,0.00,Weather View 32 v70,2013-04-28 19:27:00,
2013-04-28 14:32:00,76.0,63.8,30.51,SE,141,3.0,12.0,66,0.00,,,0.00,Weather View 32 v70,2013-04-28 19:32:00,
2013-04-28 14:37:00,76.8,64.1,30.51,WNW,298,1.0,12.0,65,0.00,,,0.00,Weather View 32 v70,2013-04-28 19:37:00,
2013-04-28 14:42:00,76.0,62.9,30.51,SE,141,8.0,12.0,64,0.00,,,0.00,Weather View 32 v70,2013-04-28 19:42:00,
2013-04-28 14:47:00,75.8,62.7,30.51,SSE,163,5.0,12.0,64,0.00,,,0.00,Weather View 32 v70,2013-04-28 19:47:00,
2013-04-28 14:52:00,76.9,65.1,30.51,South,186,1.0,12.0,67,0.00,,,0.00,Weather View 32 v70,2013-04-28 19:52:00,
2013-04-28 14:57:00,76.0,62.9,30.51,ESE,118,8.0,12.0,64,0.00,,,0.00,Weather View 32 v70,2013-04-28 19:57:00,
2013-04-28 15:02:00,76.8,64.1,30.51,South,186,8.0,11.0,65,0.00,,,0.00,Weather View 32 v70,2013-04-28 20:02:00,
2013-04-28 15:07:00,76.7,64.0,30.50,ESE,118,11.0,11.0,65,0.00,,,0.00,Weather View 32 v70,2013-04-28 20:07:00,
2013-04-28 15:12:00,76.9,63.3,30.50,SSW,208,5.0,11.0,63,0.00,,,0.00,Weather View 32 v70,2013-04-28 20:12:00,
2013-04-28 15:17:00,76.9,64.2,30.50,ESE,118,7.0,11.0,65,0.00,,,0.00,Weather View 32 v70,2013-04-28 20:17:00,
2013-04-28 15:22:00,76.7,64.0,30.50,SSE,163,7.0,11.0,65,0.00,,,0.00,Weather View 32 v70,2013-04-28 20:22:00,
2013-04-28 15:27:00,76.5,63.4,30.49,South,186,7.0,13.0,64,0.00,,,0.00,Weather View 32 v70,2013-04-28 20:27:00,
2013-04-28 15:32:00,77.3,64.6,30.49,SSW,208,5.0,13.0,65,0.00,,,0.00,Weather View 32 v70,2013-04-28 20:32:00,
2013-04-28 15:37:00,77.2,64.5,30.48,SE,141,6.0,16.0,65,0.00,,,0.00,Weather View 32 v70,2013-04-28 20:37:00,
2013-04-28 15:42:00,77.8,65.0,30.48,SE,141,5.0,16.0,65,0.00,,,0.00,Weather View 32 v70,2013-04-28 20:42:00,
2013-04-28 15:47:00,78.3,64.6,30.48,SE,141,4.0,16.0,63,0.00,,,0.00,Weather View 32 v70,2013-04-28 20:47:00,
2013-04-28 15:52:00,78.0,64.3,30.47,ESE,118,4.0,16.0,63,0.00,,,0.00,Weather View 32 v70,2013-04-28 20:52:00,
2013-04-28 15:57:00,77.9,64.2,30.47,SSE,163,5.0,16.0,63,0.00,,,0.00,Weather View 32 v70,2013-04-28 20:57:00,
2013-04-28 16:02:00,78.0,64.8,30.47,ESE,118,8.0,16.0,64,0.00,,,0.00,Weather View 32 v70,2013-04-28 21:02:00,
2013-04-28 16:07:00,78.0,63.9,30.47,SSE,163,7.0,16.0,62,0.00,,,0.00,Weather View 32 v70,2013-04-28 21:07:00,
2013-04-28 16:12:00,77.6,63.5,30.47,SSW,208,6.0,16.0,62,0.00,,,0.00,Weather View 32 v70,2013-04-28 21:12:00,
2013-04-28 16:17:00,77.9,63.8,30.46,SE,141,6.0,16.0,62,0.00,,,0.00,Weather View 32 v70,2013-04-28 21:17:00,
2013-04-28 16:22:00,78.2,65.0,30.46,NE,51,5.0,16.0,64,0.00,,,0.00,Weather View 32 v70,2013-04-28 21:22:00,
2013-04-28 16:27:00,78.2,64.5,30.46,SSW,208,7.0,16.0,63,0.00,,,0.00,Weather View 32 v70,2013-04-28 21:27:00,
2013-04-28 16:32:00,77.7,63.6,30.46,SE,141,6.0,16.0,62,0.00,,,0.00,Weather View 32 v70,2013-04-28 21:32:00,
2013-04-28 16:37:00,78.6,64.4,30.46,ESE,118,5.0,14.0,62,0.00,,,0.00,Weather View 32 v70,2013-04-28 21:37:00,
2013-04-28 16:42:00,78.5,63.9,30.45,SE,141,6.0,14.0,61,0.00,,,0.00,Weather View 32 v70,2013-04-28 21:42:00,
2013-04-28 16:47:00,78.5,64.3,30.46,SW,231,8.0,14.0,62,0.00,,,0.00,Weather View 32 v70,2013-04-28 21:47:00,
2013-04-28 16:52:00,78.4,63.8,30.45,SE,141,3.0,14.0,61,0.00,,,0.00,Weather View 32 v70,2013-04-28 21:52:00,
2013-04-28 16:57:00,78.3,63.2,30.45,SE,141,7.0,14.0,60,0.00,,,0.00,Weather View 32 v70,2013-04-28 21:57:00,
2013-04-28 17:02:00,78.4,63.8,30.45,SE,141,5.0,14.0,61,0.00,,,0.00,Weather View 32 v70,2013-04-28 22:02:00,
2013-04-28 17:07:00,78.3,63.2,30.45,ESE,118,4.0,14.0,60,0.00,,,0.00,Weather View 32 v70,2013-04-28 22:07:00,
2013-04-28 17:12:00,78.7,64.1,30.45,SE,141,3.0,14.0,61,0.00,,,0.00,Weather View 32 v70,2013-04-28 22:12:00,
2013-04-28 17:17:00,78.7,63.6,30.45,South,186,5.0,14.0,60,0.00,,,0.00,Weather View 32 v70,2013-04-28 22:17:00,
2013-04-28 17:22:00,78.5,62.9,30.45,ESE,118,5.0,13.0,59,0.00,,,0.00,Weather View 32 v70,2013-04-28 22:22:00,
2013-04-28 17:27:00,78.5,63.4,30.45,SSE,163,5.0,12.0,60,0.00,,,0.00,Weather View 32 v70,2013-04-28 22:27:00,
2013-04-28 17:32:00,78.5,63.4,30.44,SE,141,7.0,11.0,60,0.00,,,0.00,Weather View 32 v70,2013-04-28 22:32:00,
2013-04-28 17:37:00,78.5,63.4,30.45,SE,141,7.0,11.0,60,0.00,,,0.00,Weather View 32 v70,2013-04-28 22:37:00,
2013-04-28 17:42:00,78.5,62.9,30.45,SE,141,4.0,11.0,59,0.00,,,0.00,Weather View 32 v70,2013-04-28 22:42:00,
2013-04-28 17:47:00,78.8,63.7,30.45,SSW,208,3.0,11.0,60,0.00,,,0.00,Weather View 32 v70,2013-04-28 22:47:00,
2013-04-28 17:52:00,78.8,63.7,30.44,SSW,208,5.0,11.0,60,0.00,,,0.00,Weather View 32 v70,2013-04-28 22:52:00,
2013-04-28 17:57:00,78.5,63.4,30.45,South,186,5.0,11.0,60,0.00,,,0.00,Weather View 32 v70,2013-04-28 22:57:00,
2013-04-28 18:02:00,78.6,64.0,30.45,South,186,8.0,11.0,61,0.00,,,0.00,Weather View 32 v70,2013-04-28 23:02:00,
2013-04-28 18:07:00,78.7,64.1,30.44,SE,141,5.0,11.0,61,0.00,,,0.00,Weather View 32 v70,2013-04-28 23:07:00,
2013-04-28 18:12:00,78.5,63.4,30.44,ESE,118,6.0,11.0,60,0.00,,,0.00,Weather View 32 v70,2013-04-28 23:12:00,
2013-04-28 18:17:00,78.8,64.2,30.44,SE,141,4.0,11.0,61,0.00,,,0.00,Weather View 32 v70,2013-04-28 23:17:00,
2013-04-28 18:22:00,78.4,63.8,30.44,SE,141,9.0,11.0,61,0.00,,,0.00,Weather View 32 v70,2013-04-28 23:22:00,
2013-04-28 18:27:00,78.3,64.2,30.44,SSE,163,5.0,11.0,62,0.00,,,0.00,Weather View 32 v70,2013-04-28 23:27:00,
2013-04-28 18:32:00,78.5,63.9,30.44,SE,141,5.0,11.0,61,0.00,,,0.00,Weather View 32 v70,2013-04-28 23:32:00,
2013-04-28 18:37:00,78.0,63.9,30.44,South,186,3.0,11.0,62,0.00,,,0.00,Weather View 32 v70,2013-04-28 23:37:00,
2013-04-28 18:42:00,78.1,63.5,30.44,ESE,118,3.0,11.0,61,0.00,,,0.00,Weather View 32 v70,2013-04-28 23:42:00,
2013-04-28 18:47:00,78.2,63.6,30.44,SE,141,6.0,11.0,61,0.00,,,0.00,Weather View 32 v70,2013-04-28 23:47:00,
2013-04-28 18:52:00,78.0,63.4,30.44,SSE,163,5.0,11.0,61,0.00,,,0.00,Weather View 32 v70,2013-04-28 23:52:00,
2013-04-28 18:57:00,77.4,63.3,30.44,SSE,163,4.0,11.0,62,0.00,,,0.00,Weather View 32 v70,2013-04-28 23:57:00,
2013-04-28 19:02:00,77.5,63.4,30.44,SE,141,5.0,11.0,62,0.00,,,0.00,Weather View 32 v70,2013-04-29 00:02:00,
2013-04-28 19:07:00,77.6,63.5,30.45,ESE,118,5.0,11.0,62,0.00,,,0.00,Weather View 32 v70,2013-04-29 00:07:00,
2013-04-28 19:12:00,77.6,63.5,30.44,South,186,4.0,10.0,62,0.00,,,0.00,Weather View 32 v70,2013-04-29 00:12:00,
2013-04-28 19:17:00,77.3,63.2,30.44,South,186,5.0,10.0,62,0.00,,,0.00,Weather View 32 v70,2013-04-29 00:17:00,
2013-04-28 19:22:00,77.1,63.5,30.44,SE,141,3.0,10.0,63,0.00,,,0.00,Weather View 32 v70,2013-04-29 00:22:00,
2013-04-28 19:27:00,76.5,63.8,30.44,SE,141,5.0,10.0,65,0.00,,,0.00,Weather View 32 v70,2013-04-29 00:27:00,
2013-04-28 19:32:00,76.2,64.0,30.44,South,186,4.0,9.0,66,0.00,,,0.00,Weather View 32 v70,2013-04-29 00:32:00,
2013-04-28 19:37:00,75.8,64.0,30.44,SSE,163,6.0,11.0,67,0.00,,,0.00,Weather View 32 v70,2013-04-29 00:37:00,
2013-04-28 19:42:00,75.6,64.3,30.44,ESE,118,4.0,11.0,68,0.00,,,0.00,Weather View 32 v70,2013-04-29 00:42:00,
2013-04-28 19:47:00,75.5,64.2,30.44,SE,141,5.0,11.0,68,0.00,,,0.00,Weather View 32 v70,2013-04-29 00:47:00,
2013-04-28 19:52:00,75.1,64.2,30.44,SE,141,5.0,11.0,69,0.00,,,0.00,Weather View 32 v70,2013-04-29 00:52:00,
2013-04-28 19:57:00,74.8,64.3,30.44,ESE,118,5.0,11.0,70,0.00,,,0.00,Weather View 32 v70,2013-04-29 00:57:00,
2013-04-28 20:02:00,74.4,64.3,30.44,ESE,118,4.0,11.0,71,0.00,,,0.00,Weather View 32 v70,2013-04-29 01:02:00,
2013-04-28 20:07:00,74.1,64.1,30.44,SE,141,5.0,11.0,71,0.00,,,0.00,Weather View 32 v70,2013-04-29 01:07:00,
2013-04-28 20:12:00,73.7,64.1,30.44,ESE,118,5.0,11.0,72,0.00,,,0.00,Weather View 32 v70,2013-04-29 01:12:00,
2013-04-28 20:17:00,73.5,63.9,30.44,SE,141,4.0,11.0,72,0.00,,,0.00,Weather View 32 v70,2013-04-29 01:17:00,
2013-04-28 20:22:00,73.2,63.6,30.44,ESE,118,3.0,11.0,72,0.00,,,0.00,Weather View 32 v70,2013-04-29 01:22:00,
2013-04-28 20:27:00,73.0,63.4,30.45,ESE,118,4.0,11.0,72,0.00,,,0.00,Weather View 32 v70,2013-04-29 01:27:00,
2013-04-28 20:32:00,72.7,63.1,30.44,ESE,118,4.0,11.0,72,0.00,,,0.00,Weather View 32 v70,2013-04-29 01:32:00,
2013-04-28 20:37:00,72.5,62.9,30.45,SE,141,5.0,10.0,72,0.00,,,0.00,Weather View 32 v70,2013-04-29 01:37:00,
2013-04-28 20:42:00,72.2,62.6,30.44,ESE,118,5.0,10.0,72,0.00,,,0.00,Weather View 32 v70,2013-04-29 01:42:00,
2013-04-28 20:47:00,71.9,62.7,30.44,SE,141,4.0,8.0,73,0.00,,,0.00,Weather View 32 v70,2013-04-29 01:47:00,
2013-04-28 20:52:00,71.7,62.6,30.44,ESE,118,4.0,8.0,73,0.00,,,0.00,Weather View 32 v70,2013-04-29 01:52:00,
2013-04-28 20:57:00,71.5,62.7,30.44,ESE,118,3.0,7.0,74,0.00,,,0.00,Weather View 32 v70,2013-04-29 01:57:00,
2013-04-28 21:02:00,71.3,62.9,30.44,ESE,118,3.0,7.0,75,0.00,,,0.00,Weather View 32 v70,2013-04-29 02:02:00,
2013-04-28 21:07:00,71.3,62.9,30.45,ESE,118,3.0,7.0,75,0.00,,,0.00,Weather View 32 v70,2013-04-29 02:07:00,
2013-04-28 21:12:00,71.1,62.7,30.45,SE,141,3.0,6.0,75,0.00,,,0.00,Weather View 32 v70,2013-04-29 02:12:00,
2013-04-28 21:17:00,70.9,62.9,30.45,ESE,118,3.0,6.0,76,0.00,,,0.00,Weather View 32 v70,2013-04-29 02:17:00,
2013-04-28 21:22:00,70.8,62.8,30.45,SE,141,3.0,6.0,76,0.00,,,0.00,Weather View 32 v70,2013-04-29 02:22:00,
2013-04-28 21:27:00,70.6,63.0,30.45,SE,141,3.0,6.0,77,0.00,,,0.00,Weather View 32 v70,2013-04-29 02:27:00,
2013-04-28 21:32:00,70.3,63.1,30.45,ESE,118,3.0,6.0,78,0.00,,,0.00,Weather View 32 v70,2013-04-29 02:32:00,
2013-04-28 21:37:00,70.2,63.0,30.45,SE,141,5.0,6.0,78,0.00,,,0.00,Weather View 32 v70,2013-04-29 02:37:00,
2013-04-28 21:42:00,70.1,63.3,30.46,SE,141,4.0,6.0,79,0.00,,,0.00,Weather View 32 v70,2013-04-29 02:42:00,
2013-04-28 21:47:00,69.9,63.1,30.45,ESE,118,5.0,6.0,79,0.00,,,0.00,Weather View 32 v70,2013-04-29 02:47:00,
2013-04-28 21:52:00,69.7,63.2,30.46,ESE,118,3.0,6.0,80,0.00,,,0.00,Weather View 32 v70,2013-04-29 02:52:00,
2013-04-28 21:57:00,69.6,63.1,30.46,East,96,4.0,6.0,80,0.00,,,0.00,Weather View 32 v70,2013-04-29 02:57:00,
2013-04-28 22:02:00,69.6,63.1,30.46,ESE,118,3.0,6.0,80,0.00,,,0.00,Weather View 32 v70,2013-04-29 03:02:00,
2013-04-28 22:07:00,69.4,63.3,30.46,ESE,118,4.0,6.0,81,0.00,,,0.00,Weather View 32 v70,2013-04-29 03:07:00,
2013-04-28 22:12:00,69.2,63.1,30.46,SE,141,3.0,6.0,81,0.00,,,0.00,Weather View 32 v70,2013-04-29 03:12:00,
2013-04-28 22:17:00,69.2,63.1,30.46,ESE,118,4.0,6.0,81,0.00,,,0.00,Weather View 32 v70,2013-04-29 03:17:00,
2013-04-28 22:22:00,69.1,63.4,30.46,East,96,3.0,6.0,82,0.00,,,0.00,Weather View 32 v70,2013-04-29 03:22:00,
2013-04-28 22:27:00,69.0,63.3,30.46,SE,141,3.0,6.0,82,0.00,,,0.00,Weather View 32 v70,2013-04-29 03:27:00,
2013-04-28 22:32:00,68.9,63.2,30.47,ESE,118,3.0,6.0,82,0.00,,,0.00,Weather View 32 v70,2013-04-29 03:32:00,
2013-04-28 22:37:00,68.9,63.2,30.47,East,96,3.0,6.0,82,0.00,,,0.00,Weather View 32 v70,2013-04-29 03:37:00,
2013-04-28 22:42:00,68.9,63.2,30.47,East,96,3.0,6.0,82,0.00,,,0.00,Weather View 32 v70,2013-04-29 03:42:00,
2013-04-28 22:47:00,68.8,63.1,30.47,East,96,2.0,6.0,82,0.00,,,0.00,Weather View 32 v70,2013-04-29 03:47:00,
2013-04-28 22:52:00,68.4,62.7,30.47,ESE,118,3.0,6.0,82,0.00,,,0.00,Weather View 32 v70,2013-04-29 03:52:00,
2013-04-28 22:57:00,68.0,62.6,30.46,ESE,118,3.0,6.0,83,0.00,,,0.00,Weather View 32 v70,2013-04-29 03:57:00,
2013-04-28 23:01:00,67.9,62.5,30.46,East,96,4.0,6.0,83,0.00,,,0.00,Weather View 32 v70,2013-04-29 04:01:00,
2013-04-28 23:06:00,67.6,62.6,30.47,ESE,118,5.0,6.0,84,0.00,,,0.00,Weather View 32 v70,2013-04-29 04:06:00,
2013-04-28 23:11:00,67.6,62.6,30.46,ESE,118,4.0,6.0,84,0.00,,,0.00,Weather View 32 v70,2013-04-29 04:11:00,
2013-04-28 23:16:00,67.5,62.5,30.46,ESE,118,4.0,6.0,84,0.00,,,0.00,Weather View 32 v70,2013-04-29 04:16:00,
2013-04-28 23:21:00,67.4,62.7,30.46,SE,141,4.0,6.0,85,0.00,,,0.00,Weather View 32 v70,2013-04-29 04:21:00,
2013-04-28 23:26:00,67.3,62.6,30.46,ESE,118,4.0,6.0,85,0.00,,,0.00,Weather View 32 v70,2013-04-29 04:26:00,
2013-04-28 23:31:00,67.3,62.6,30.46,ESE,118,3.0,6.0,85,0.00,,,0.00,Weather View 32 v70,2013-04-29 04:31:00,
2013-04-28 23:36:00,67.2,62.5,30.46,ESE,118,4.0,6.0,85,0.00,,,0.00,Weather View 32 v70,2013-04-29 04:36:00,
2013-04-28 23:41:00,67.3,62.6,30.45,SE,141,5.0,6.0,85,0.00,,,0.00,Weather View 32 v70,2013-04-29 04:41:00,
2013-04-28 23:46:00,67.3,62.6,30.45,ESE,118,4.0,6.0,85,0.00,,,0.00,Weather View 32 v70,2013-04-29 04:46:00,
2013-04-28 23:51:00,67.4,62.4,30.45,ESE,118,3.0,6.0,84,0.00,,,0.00,Weather View 32 v70,2013-04-29 04:51:00,
2013-04-28 23:56:00,67.5,62.5,30.46,SE,141,5.0,6.0,84,0.00,,,0.00,Weather View 32 v70,2013-04-29 04:56:00,